AirNav   Jet Aviation Boston
 
 1619 users online  

LL10 Naper Aero Club Airport
Naperville, Illinois, USA

GOING TO NAPERVILLE?


FAA INFORMATION EFFECTIVE 24 MAY 2018

Location

FAA Identifier: LL10
Lat/Long: 41-44-10.6000N / 088-12-09.9000W
41-44.176667N / 088-12.165000W
41.7362778 / -88.2027500
(estimated)
Elevation: 709.1 ft. / 216 m (estimated)
Variation: 04W (2020)
From city: 3 miles SW of NAPERVILLE, IL
Time zone: UTC -5 (UTC -6 during Standard Time)
Zip code: 60564

Airport Operations

Airport use: Private use. Permission required prior to landing
Activation date: 11/1962
Control tower: no
ARTCC: CHICAGO CENTER
FSS: KANKAKEE FLIGHT SERVICE STATION
NOTAMs facility: FDC (NOTAM-D service not available)
Attendance: UNATNDD
Wind indicator: yes
Segmented circle: no
Lights: ACTIVATE VASI RY 18 & 36; LIRL RY 18/36 PRESET ON LOW INTST; TO INCR INTST ACTVT - 122.9.

Airport Communications

WX AWOS-3 at LOT (9 nm SE): 118.525 (815-588-4802)
WX ASOS at DPA (10 nm N): PHONE 630-584-2728
WX ASOS at ARR (12 nm W): PHONE 630-466-5622
WX AWOS-3 at JOT (13 nm S): 119.975 (815-730-9560)
WX AWOS-3 at 06C (16 nm N): 128.275 ((847) 895-2887)
WX ASOS at ORD (19 nm NE): PHONE 773-462-0118

Nearby radio navigation aids

VOR radial/distance  VOR name  Freq  Var
DPAr143/11.4DUPAGE VOR/DME108.4002E
JOTr022/12.5JOLIET VOR/DME112.3002E
ORDr219/20.1CHICAGO O'HARE VOR/DME113.9002E
OBKr203/31.2NORTHBROOK VOR/DME113.0002W
CGTr294/31.4CHICAGO HEIGHTS VORTAC114.2002E
EONr325/33.6PEOTONE VORTAC113.2002E

Airport Services

Fuel available: 100 80
Airframe service: NONE
Powerplant service: NONE

Runway Information

Runway 18/36

Dimensions: 2537 x 30 ft. / 773 x 9 m
Surface: asphalt
SLIPPERY WHEN WET.
Runway edge lights: low intensity
RUNWAY 18  RUNWAY 36
Latitude: 41-44.385833N41-43.968167N
Longitude: 088-12.161500W088-12.169333W
Elevation: 701.9 ft.705.3 ft.
Traffic pattern: leftleft
Displaced threshold: no233 ft.
Visual slope indicator: 2-box VASI on left (3.25 degrees glide path)2-box VASI on left (3.25 degrees glide path)
Touchdown point: yes, no lightsyes, no lights
Obstructions: none15 ft. road, 50 ft. from runway

Runway 9/27

Dimensions: 1750 x 70 ft. / 533 x 21 m
Surface: turf
RUNWAY 9  RUNWAY 27
Traffic pattern: leftleft
Displaced threshold: 150 ft.no
Obstructions: 28 ft. house, 270 ft. from runway, 1:1 slope to clearnone

Airport Ownership and Management from official FAA records

Ownership: Privately-owned
Owner: NAPER AERO CLUB INC
9 SOUTH 357 AERO DR.
NAPERVILLE, IL 60564
Phone 630-961-1520
Manager: CRAIG VANDER KOLK
9 SOUTH 357 AERO DR.
NAPERVILLE, IL 60564
Phone 630-508-8279

Airport Operational Statistics

Aircraft based on the field: 110
Single engine airplanes: 106
Multi engine airplanes: 3
Helicopters: 1
    

Additional Remarks

RWY 36 ACFT PARKED ON PRIM SFC.
RY 18 HAS 2330 FT AVBL FOR USE DURING TKOF.

Instrument Procedures

There are no published instrument procedures at LL10.

Some nearby airports with instrument procedures:

1C5 - Bolingbrook's Clow International Airport (4 nm SE)
KLOT - Lewis University Airport (9 nm SE)
KDPA - DuPage Airport (10 nm N)
KARR - Aurora Municipal Airport (12 nm W)
KORD - Chicago O'Hare International Airport (19 nm NE)
 
Loc | Ops | Rwys | IFR | FBO | Links
Com | Nav | Svcs | Stats | Notes

AirNav Hotels Sweepstakes
 
Area around LL10 (Naper Aero Club Airport)
 
Road maps at: MapQuest Bing Google
 
Aerial photo
WARNING: Photo may not be current or correct
Aerial photo of LL10 (Naper Aero Club Airport)
Photo by Mark D'Asta
Photo taken 26-Apr-2013
looking north.

Do you have a better or more recent aerial photo of Naper Aero Club Airport that you would like to share? If so, please send us your photo.

 
Sectional chart

 
Airport distance calculator
Flying to Naper Aero Club Airport? Find the distance to fly.

From to LL10

Sunrise and sunset
Times for 18-Jun-2018
 Local
(UTC-5)
 Zulu
(UTC)
Morning civil twilight04:4409:44
Sunrise05:1910:19
Sunset20:2901:29
Evening civil twilight21:0302:03

Current date and time
Zulu (UTC)  18-Jun-2018 19:40:39
Local (UTC-5)  18-Jun-2018 14:40:39
 
METAR
KLOT 
9nm SE 
181915Z AUTO 27014G20KT 10SM SCT047 SCT050 33/23 A2995 RMK AO2 T03300230
KDPA 
11nm N 
181852Z 23015G24KT 9SM FEW043 33/24 A2994 RMK AO2 SLP130 T03330239
KARR 
13nm W 
181852Z 22012G20KT 10SM FEW043 33/23 A2995 RMK AO2 SLP134 T03330233
KJOT 
13nm S 
181915Z AUTO 24010G15KT 10SM BKN048 BKN060 34/23 A2995 RMK AO2 T03400232
K06C 
16nm N 
181915Z AUTO 23007KT 160V310 10SM SCT041 SCT050 32/23 A2993 RMK AO2 T03230231
KORD 
19nm NE 
181851Z 25011G21KT 10SM SCT048 SCT060 SCT250 34/21 A2992 RMK AO2 SLP124 T03390211
TAF
KDPA 
11nm N 
181733Z 1818/1918 24012G18KT P6SM SCT050 SCT250 FM182300 27010KT P6SM VCTS BKN045CB TEMPO 1900/1901 2SM +TSRA SCT020 BKN035CB FM190100 04009KT P6SM VCTS BKN045CB TEMPO 1901/1904 2SM +TSRA SCT020 BKN035CB FM190600 04006KT 6SM BR VCSH SCT020 OVC035
KORD 
19nm NE 
181733Z 1818/1924 24012G20KT P6SM SCT050 SCT250 FM182300 02010KT P6SM VCTS BKN045CB TEMPO 1823/1903 2SM +TSRA SCT020 BKN035CB FM190600 03008KT 6SM BR VCSH SCT020 OVC035 FM191200 03005KT 6SM BR SCT009 BKN020 FM191400 05006KT 4SM BR BKN008
NOTAMs
Click for the latest NOTAMs
NOTAMs are issued by the DoD/FAA and will open in a separate window not controlled by AirNav.

 

 
 

Would you like to see your business listed on this page?

 If your business provides an interesting product or service to pilots, flight crews, aircraft, or users of the Naper Aero Club Airport, you should consider listing it here.  To start the listing process, click on the button below
 
Add a business
 

Other Pages about Naper Aero Club Airport

Update a link
 
Copyright © AirNav, LLC. All rights reserved. Privacy Policy  Contact